sensor_id;sensor_type;location;lat;lon;timestamp;P1;durP1;ratioP1;P2;durP2;ratioP2
66751;SDS011;53663;42.676;23.238;2022-09-09T00:00:49;8.48;;;6.10;;
66751;SDS011;53663;42.676;23.238;2022-09-09T00:03:24;9.90;;;6.13;;
66751;SDS011;53663;42.676;23.238;2022-09-09T00:08:45;8.80;;;6.18;;
66751;SDS011;53663;42.676;23.238;2022-09-09T00:11:34;10.65;;;6.07;;
66751;SDS011;53663;42.676;23.238;2022-09-09T00:17:08;9.90;;;6.07;;
66751;SDS011;53663;42.676;23.238;2022-09-09T00:19:44;6.72;;;5.43;;
66751;SDS011;53663;42.676;23.238;2022-09-09T00:22:17;10.05;;;5.70;;
66751;SDS011;53663;42.676;23.238;2022-09-09T00:24:56;8.93;;;6.20;;
66751;SDS011;53663;42.676;23.238;2022-09-09T00:27:39;9.73;;;5.95;;
66751;SDS011;53663;42.676;23.238;2022-09-09T00:32:48;8.02;;;6.05;;
66751;SDS011;53663;42.676;23.238;2022-09-09T00:35:18;7.47;;;6.18;;
66751;SDS011;53663;42.676;23.238;2022-09-09T00:37:47;11.02;;;5.85;;
66751;SDS011;53663;42.676;23.238;2022-09-09T00:40:23;10.05;;;6.20;;
66751;SDS011;53663;42.676;23.238;2022-09-09T00:48:46;10.75;;;5.85;;
66751;SDS011;53663;42.676;23.238;2022-09-09T00:51:30;8.65;;;6.10;;
66751;SDS011;53663;42.676;23.238;2022-09-09T00:54:18;9.98;;;6.43;;
66751;SDS011;53663;42.676;23.238;2022-09-09T00:59:40;8.75;;;6.05;;
66751;SDS011;53663;42.676;23.238;2022-09-09T01:02:19;10.10;;;5.72;;
66751;SDS011;53663;42.676;23.238;2022-09-09T01:04:52;8.55;;;5.97;;
66751;SDS011;53663;42.676;23.238;2022-09-09T01:07:18;12.00;;;6.32;;
66751;SDS011;53663;42.676;23.238;2022-09-09T01:09:57;7.32;;;5.82;;
66751;SDS011;53663;42.676;23.238;2022-09-09T01:12:28;9.27;;;6.38;;
66751;SDS011;53663;42.676;23.238;2022-09-09T01:15:07;9.57;;;6.15;;
66751;SDS011;53663;42.676;23.238;2022-09-09T01:17:53;8.60;;;6.03;;
66751;SDS011;53663;42.676;23.238;2022-09-09T01:29:06;6.75;;;5.55;;
66751;SDS011;53663;42.676;23.238;2022-09-09T01:32:37;8.40;;;6.13;;
66751;SDS011;53663;42.676;23.238;2022-09-09T01:34:49;9.45;;;5.93;;
66751;SDS011;53663;42.676;23.238;2022-09-09T01:37:15;9.48;;;6.30;;
66751;SDS011;53663;42.676;23.238;2022-09-09T01:39:41;8.43;;;6.57;;
66751;SDS011;53663;42.676;23.238;2022-09-09T01:42:13;11.00;;;6.90;;
66751;SDS011;53663;42.676;23.238;2022-09-09T01:44:41;9.80;;;5.97;;
66751;SDS011;53663;42.676;23.238;2022-09-09T01:47:07;10.57;;;6.90;;
66751;SDS011;53663;42.676;23.238;2022-09-09T01:49:39;10.90;;;7.20;;
66751;SDS011;53663;42.676;23.238;2022-09-09T01:52:14;9.32;;;5.97;;
66751;SDS011;53663;42.676;23.238;2022-09-09T01:54:40;17.27;;;6.53;;
66751;SDS011;53663;42.676;23.238;2022-09-09T01:59:48;8.98;;;6.90;;
66751;SDS011;53663;42.676;23.238;2022-09-09T02:06:00;9.13;;;6.72;;
66751;SDS011;53663;42.676;23.238;2022-09-09T02:08:51;10.10;;;6.53;;
66751;SDS011;53663;42.676;23.238;2022-09-09T02:11:23;13.55;;;6.70;;
66751;SDS011;53663;42.676;23.238;2022-09-09T02:14:08;8.80;;;6.27;;
66751;SDS011;53663;42.676;23.238;2022-09-09T02:16:46;9.35;;;6.60;;
66751;SDS011;53663;42.676;23.238;2022-09-09T02:19:18;8.30;;;6.53;;
66751;SDS011;53663;42.676;23.238;2022-09-09T02:22:09;9.80;;;6.72;;
66751;SDS011;53663;42.676;23.238;2022-09-09T02:24:36;13.10;;;6.63;;
66751;SDS011;53663;42.676;23.238;2022-09-09T02:27:20;9.68;;;7.00;;
66751;SDS011;53663;42.676;23.238;2022-09-09T02:29:47;8.15;;;6.47;;
66751;SDS011;53663;42.676;23.238;2022-09-09T02:32:20;10.13;;;6.80;;
66751;SDS011;53663;42.676;23.238;2022-09-09T02:34:53;9.02;;;6.18;;
66751;SDS011;53663;42.676;23.238;2022-09-09T02:37:25;7.95;;;6.50;;
66751;SDS011;53663;42.676;23.238;2022-09-09T02:39:55;8.63;;;6.72;;
66751;SDS011;53663;42.676;23.238;2022-09-09T02:42:22;9.07;;;6.88;;
66751;SDS011;53663;42.676;23.238;2022-09-09T02:44:49;11.15;;;7.53;;
66751;SDS011;53663;42.676;23.238;2022-09-09T02:55:45;12.38;;;7.13;;
66751;SDS011;53663;42.676;23.238;2022-09-09T02:58:18;10.85;;;7.20;;
66751;SDS011;53663;42.676;23.238;2022-09-09T03:00:52;12.00;;;7.13;;
66751;SDS011;53663;42.676;23.238;2022-09-09T03:03:19;12.85;;;7.13;;
66751;SDS011;53663;42.676;23.238;2022-09-09T03:05:48;10.65;;;7.38;;
66751;SDS011;53663;42.676;23.238;2022-09-09T03:08:13;12.65;;;7.13;;
66751;SDS011;53663;42.676;23.238;2022-09-09T03:10:40;12.48;;;7.57;;
66751;SDS011;53663;42.676;23.238;2022-09-09T03:13:06;12.07;;;7.40;;
66751;SDS011;53663;42.676;23.238;2022-09-09T03:15:36;12.18;;;6.93;;
66751;SDS011;53663;42.676;23.238;2022-09-09T03:18:04;15.32;;;6.85;;
66751;SDS011;53663;42.676;23.238;2022-09-09T03:20:29;14.60;;;7.13;;
66751;SDS011;53663;42.676;23.238;2022-09-09T03:22:56;10.68;;;7.10;;
66751;SDS011;53663;42.676;23.238;2022-09-09T03:25:24;11.95;;;7.15;;
66751;SDS011;53663;42.676;23.238;2022-09-09T03:27:51;12.25;;;7.20;;
66751;SDS011;53663;42.676;23.238;2022-09-09T03:30:26;9.85;;;6.60;;
66751;SDS011;53663;42.676;23.238;2022-09-09T03:32:54;9.88;;;7.20;;
66751;SDS011;53663;42.676;23.238;2022-09-09T03:35:27;9.90;;;7.20;;
66751;SDS011;53663;42.676;23.238;2022-09-09T03:37:54;13.00;;;7.88;;
66751;SDS011;53663;42.676;23.238;2022-09-09T03:40:21;14.07;;;7.20;;
66751;SDS011;53663;42.676;23.238;2022-09-09T03:42:47;10.73;;;7.32;;
66751;SDS011;53663;42.676;23.238;2022-09-09T03:45:15;10.95;;;7.63;;
66751;SDS011;53663;42.676;23.238;2022-09-09T03:47:41;12.75;;;7.80;;
66751;SDS011;53663;42.676;23.238;2022-09-09T03:50:07;14.18;;;8.02;;
66751;SDS011;53663;42.676;23.238;2022-09-09T03:52:37;10.50;;;8.18;;
66751;SDS011;53663;42.676;23.238;2022-09-09T03:55:06;10.05;;;7.65;;
66751;SDS011;53663;42.676;23.238;2022-09-09T03:57:33;10.55;;;7.80;;
66751;SDS011;53663;42.676;23.238;2022-09-09T04:00:04;11.80;;;7.82;;
66751;SDS011;53663;42.676;23.238;2022-09-09T04:05:09;15.63;;;8.32;;
66751;SDS011;53663;42.676;23.238;2022-09-09T04:07:38;16.25;;;8.38;;
66751;SDS011;53663;42.676;23.238;2022-09-09T04:10:04;10.43;;;8.40;;
66751;SDS011;53663;42.676;23.238;2022-09-09T04:12:30;11.35;;;8.20;;
66751;SDS011;53663;42.676;23.238;2022-09-09T04:14:56;12.32;;;7.68;;
66751;SDS011;53663;42.676;23.238;2022-09-09T04:17:22;11.23;;;7.80;;
66751;SDS011;53663;42.676;23.238;2022-09-09T04:19:47;15.23;;;8.00;;
66751;SDS011;53663;42.676;23.238;2022-09-09T04:22:13;13.77;;;8.05;;
66751;SDS011;53663;42.676;23.238;2022-09-09T04:24:39;11.18;;;8.18;;
66751;SDS011;53663;42.676;23.238;2022-09-09T04:27:05;12.25;;;8.57;;
66751;SDS011;53663;42.676;23.238;2022-09-09T04:29:33;18.33;;;9.07;;
66751;SDS011;53663;42.676;23.238;2022-09-09T04:31:59;12.55;;;8.35;;
66751;SDS011;53663;42.676;23.238;2022-09-09T04:34:25;12.45;;;7.95;;
66751;SDS011;53663;42.676;23.238;2022-09-09T04:36:53;14.07;;;7.90;;
66751;SDS011;53663;42.676;23.238;2022-09-09T04:39:19;11.85;;;7.85;;
66751;SDS011;53663;42.676;23.238;2022-09-09T04:41:45;14.40;;;7.60;;
66751;SDS011;53663;42.676;23.238;2022-09-09T04:44:12;11.25;;;6.93;;
66751;SDS011;53663;42.676;23.238;2022-09-09T04:46:38;12.63;;;7.35;;
66751;SDS011;53663;42.676;23.238;2022-09-09T04:49:03;23.13;;;8.23;;
66751;SDS011;53663;42.676;23.238;2022-09-09T04:51:31;11.32;;;7.15;;
66751;SDS011;53663;42.676;23.238;2022-09-09T04:53:57;9.45;;;6.85;;
66751;SDS011;53663;42.676;23.238;2022-09-09T04:56:22;15.73;;;7.45;;
66751;SDS011;53663;42.676;23.238;2022-09-09T04:58:53;10.95;;;7.10;;
66751;SDS011;53663;42.676;23.238;2022-09-09T05:01:22;11.55;;;6.53;;
66751;SDS011;53663;42.676;23.238;2022-09-09T05:03:50;8.98;;;6.25;;
66751;SDS011;53663;42.676;23.238;2022-09-09T05:06:21;14.82;;;6.53;;
66751;SDS011;53663;42.676;23.238;2022-09-09T05:08:49;14.18;;;6.70;;
66751;SDS011;53663;42.676;23.238;2022-09-09T05:13:51;10.07;;;5.80;;
66751;SDS011;53663;42.676;23.238;2022-09-09T05:16:18;11.43;;;6.20;;
66751;SDS011;53663;42.676;23.238;2022-09-09T05:18:45;17.58;;;6.68;;
66751;SDS011;53663;42.676;23.238;2022-09-09T05:21:12;16.70;;;6.60;;
66751;SDS011;53663;42.676;23.238;2022-09-09T05:23:39;12.23;;;6.47;;
66751;SDS011;53663;42.676;23.238;2022-09-09T05:26:06;15.23;;;7.05;;
66751;SDS011;53663;42.676;23.238;2022-09-09T05:28:34;21.13;;;7.20;;
66751;SDS011;53663;42.676;23.238;2022-09-09T05:31:02;17.05;;;6.95;;
66751;SDS011;53663;42.676;23.238;2022-09-09T05:33:31;18.80;;;7.13;;
66751;SDS011;53663;42.676;23.238;2022-09-09T05:35:59;17.48;;;6.80;;
66751;SDS011;53663;42.676;23.238;2022-09-09T05:38:27;11.75;;;6.75;;
66751;SDS011;53663;42.676;23.238;2022-09-09T05:40:53;12.77;;;7.43;;
66751;SDS011;53663;42.676;23.238;2022-09-09T05:43:19;15.27;;;6.75;;
66751;SDS011;53663;42.676;23.238;2022-09-09T05:45:48;13.88;;;7.05;;
66751;SDS011;53663;42.676;23.238;2022-09-09T05:48:23;12.35;;;6.75;;
66751;SDS011;53663;42.676;23.238;2022-09-09T05:50:52;10.30;;;6.53;;
66751;SDS011;53663;42.676;23.238;2022-09-09T05:53:18;12.43;;;6.90;;
66751;SDS011;53663;42.676;23.238;2022-09-09T05:55:44;14.05;;;6.25;;
66751;SDS011;53663;42.676;23.238;2022-09-09T05:58:11;17.50;;;7.80;;
66751;SDS011;53663;42.676;23.238;2022-09-09T06:00:36;20.30;;;8.75;;
66751;SDS011;53663;42.676;23.238;2022-09-09T06:03:03;16.52;;;7.68;;
66751;SDS011;53663;42.676;23.238;2022-09-09T06:05:29;14.63;;;7.38;;
66751;SDS011;53663;42.676;23.238;2022-09-09T06:07:55;14.80;;;7.43;;
66751;SDS011;53663;42.676;23.238;2022-09-09T06:10:22;12.77;;;7.60;;
66751;SDS011;53663;42.676;23.238;2022-09-09T06:12:48;15.35;;;7.32;;
66751;SDS011;53663;42.676;23.238;2022-09-09T06:15:13;14.00;;;7.05;;
66751;SDS011;53663;42.676;23.238;2022-09-09T06:17:39;15.77;;;8.68;;
66751;SDS011;53663;42.676;23.238;2022-09-09T06:20:06;13.70;;;7.90;;
66751;SDS011;53663;42.676;23.238;2022-09-09T06:22:34;14.23;;;6.95;;
66751;SDS011;53663;42.676;23.238;2022-09-09T06:25:00;16.15;;;7.18;;
66751;SDS011;53663;42.676;23.238;2022-09-09T06:27:27;14.80;;;6.93;;
66751;SDS011;53663;42.676;23.238;2022-09-09T06:29:53;16.90;;;6.90;;
66751;SDS011;53663;42.676;23.238;2022-09-09T06:32:19;12.07;;;6.40;;
66751;SDS011;53663;42.676;23.238;2022-09-09T06:34:45;17.95;;;6.38;;
66751;SDS011;53663;42.676;23.238;2022-09-09T06:37:10;11.13;;;6.65;;
66751;SDS011;53663;42.676;23.238;2022-09-09T06:39:41;13.60;;;6.10;;
66751;SDS011;53663;42.676;23.238;2022-09-09T06:42:07;9.35;;;6.38;;
66751;SDS011;53663;42.676;23.238;2022-09-09T06:44:48;16.90;;;6.50;;
66751;SDS011;53663;42.676;23.238;2022-09-09T06:47:22;18.58;;;6.90;;
66751;SDS011;53663;42.676;23.238;2022-09-09T06:49:47;12.15;;;7.00;;
66751;SDS011;53663;42.676;23.238;2022-09-09T06:52:13;24.48;;;7.80;;
66751;SDS011;53663;42.676;23.238;2022-09-09T06:54:39;19.02;;;7.18;;
66751;SDS011;53663;42.676;23.238;2022-09-09T06:57:05;9.35;;;6.30;;
66751;SDS011;53663;42.676;23.238;2022-09-09T06:59:33;20.30;;;7.93;;
66751;SDS011;53663;42.676;23.238;2022-09-09T07:01:59;17.42;;;8.30;;
66751;SDS011;53663;42.676;23.238;2022-09-09T07:04:24;17.83;;;9.25;;
66751;SDS011;53663;42.676;23.238;2022-09-09T07:06:50;14.48;;;7.88;;
66751;SDS011;53663;42.676;23.238;2022-09-09T07:09:21;23.38;;;7.82;;
66751;SDS011;53663;42.676;23.238;2022-09-09T07:11:50;17.80;;;8.00;;
66751;SDS011;53663;42.676;23.238;2022-09-09T07:14:18;21.02;;;8.48;;
66751;SDS011;53663;42.676;23.238;2022-09-09T07:16:48;20.65;;;7.05;;
66751;SDS011;53663;42.676;23.238;2022-09-09T07:19:15;13.80;;;7.78;;
66751;SDS011;53663;42.676;23.238;2022-09-09T07:21:42;17.38;;;8.35;;
66751;SDS011;53663;42.676;23.238;2022-09-09T07:24:11;14.00;;;8.15;;
66751;SDS011;53663;42.676;23.238;2022-09-09T07:26:39;17.45;;;7.85;;
66751;SDS011;53663;42.676;23.238;2022-09-09T07:29:06;21.20;;;7.70;;
66751;SDS011;53663;42.676;23.238;2022-09-09T07:31:33;32.97;;;19.08;;
66751;SDS011;53663;42.676;23.238;2022-09-09T07:34:03;14.50;;;7.78;;
66751;SDS011;53663;42.676;23.238;2022-09-09T07:36:34;19.73;;;7.35;;
66751;SDS011;53663;42.676;23.238;2022-09-09T07:39:07;16.30;;;8.07;;
66751;SDS011;53663;42.676;23.238;2022-09-09T07:41:39;20.20;;;12.63;;
66751;SDS011;53663;42.676;23.238;2022-09-09T07:44:11;24.38;;;9.35;;
66751;SDS011;53663;42.676;23.238;2022-09-09T07:46:44;14.48;;;7.88;;
66751;SDS011;53663;42.676;23.238;2022-09-09T07:49:13;15.60;;;7.00;;
66751;SDS011;53663;42.676;23.238;2022-09-09T07:51:41;23.17;;;7.88;;
66751;SDS011;53663;42.676;23.238;2022-09-09T07:54:09;21.40;;;8.30;;
66751;SDS011;53663;42.676;23.238;2022-09-09T07:56:40;21.58;;;7.80;;
66751;SDS011;53663;42.676;23.238;2022-09-09T07:59:07;18.45;;;8.55;;
66751;SDS011;53663;42.676;23.238;2022-09-09T08:01:36;15.25;;;7.57;;
66751;SDS011;53663;42.676;23.238;2022-09-09T08:04:15;16.75;;;6.93;;
66751;SDS011;53663;42.676;23.238;2022-09-09T08:06:48;16.13;;;8.73;;
66751;SDS011;53663;42.676;23.238;2022-09-09T08:09:20;22.17;;;8.02;;
66751;SDS011;53663;42.676;23.238;2022-09-09T08:11:47;15.10;;;8.90;;
66751;SDS011;53663;42.676;23.238;2022-09-09T08:14:13;21.17;;;7.80;;
66751;SDS011;53663;42.676;23.238;2022-09-09T08:16:42;16.50;;;7.47;;
66751;SDS011;53663;42.676;23.238;2022-09-09T08:19:10;12.40;;;7.43;;
66751;SDS011;53663;42.676;23.238;2022-09-09T08:21:38;17.45;;;7.97;;
66751;SDS011;53663;42.676;23.238;2022-09-09T08:24:06;15.82;;;7.20;;
66751;SDS011;53663;42.676;23.238;2022-09-09T08:26:34;30.55;;;8.15;;
66751;SDS011;53663;42.676;23.238;2022-09-09T08:29:02;20.45;;;7.53;;
66751;SDS011;53663;42.676;23.238;2022-09-09T08:31:31;19.75;;;8.02;;
66751;SDS011;53663;42.676;23.238;2022-09-09T08:34:02;18.67;;;7.43;;
66751;SDS011;53663;42.676;23.238;2022-09-09T08:36:30;17.88;;;7.47;;
66751;SDS011;53663;42.676;23.238;2022-09-09T08:39:02;16.17;;;8.13;;
66751;SDS011;53663;42.676;23.238;2022-09-09T08:44:13;16.08;;;7.13;;
66751;SDS011;53663;42.676;23.238;2022-09-09T08:52:18;18.38;;;7.75;;
66751;SDS011;53663;42.676;23.238;2022-09-09T08:54:47;18.17;;;8.20;;
66751;SDS011;53663;42.676;23.238;2022-09-09T08:57:23;18.17;;;8.25;;
66751;SDS011;53663;42.676;23.238;2022-09-09T08:59:52;20.43;;;8.33;;
66751;SDS011;53663;42.676;23.238;2022-09-09T09:05:30;17.42;;;7.95;;
66751;SDS011;53663;42.676;23.238;2022-09-09T09:10:49;20.80;;;8.02;;
66751;SDS011;53663;42.676;23.238;2022-09-09T09:13:22;14.10;;;7.50;;
66751;SDS011;53663;42.676;23.238;2022-09-09T09:16:00;21.02;;;8.13;;
66751;SDS011;53663;42.676;23.238;2022-09-09T09:18:33;16.25;;;7.15;;
66751;SDS011;53663;42.676;23.238;2022-09-09T09:21:05;17.05;;;8.23;;
66751;SDS011;53663;42.676;23.238;2022-09-09T09:23:45;15.65;;;7.43;;
66751;SDS011;53663;42.676;23.238;2022-09-09T09:26:25;16.35;;;6.85;;
66751;SDS011;53663;42.676;23.238;2022-09-09T09:28:56;18.17;;;7.32;;
66751;SDS011;53663;42.676;23.238;2022-09-09T09:31:25;9.67;;;6.83;;
66751;SDS011;53663;42.676;23.238;2022-09-09T09:33:55;16.67;;;7.63;;
66751;SDS011;53663;42.676;23.238;2022-09-09T09:36:32;19.60;;;6.25;;
66751;SDS011;53663;42.676;23.238;2022-09-09T09:39:01;18.85;;;6.30;;
66751;SDS011;53663;42.676;23.238;2022-09-09T09:41:35;18.80;;;6.00;;
66751;SDS011;53663;42.676;23.238;2022-09-09T09:44:02;14.55;;;6.95;;
66751;SDS011;53663;42.676;23.238;2022-09-09T09:46:30;13.32;;;6.65;;
66751;SDS011;53663;42.676;23.238;2022-09-09T09:49:05;10.52;;;6.20;;
66751;SDS011;53663;42.676;23.238;2022-09-09T09:51:34;17.20;;;6.50;;
66751;SDS011;53663;42.676;23.238;2022-09-09T09:59:19;12.95;;;5.75;;
66751;SDS011;53663;42.676;23.238;2022-09-09T10:04:39;15.43;;;6.18;;
66751;SDS011;53663;42.676;23.238;2022-09-09T10:07:11;12.27;;;5.93;;
66751;SDS011;53663;42.676;23.238;2022-09-09T10:09:45;15.10;;;6.00;;
66751;SDS011;53663;42.676;23.238;2022-09-09T10:12:23;13.40;;;6.05;;
66751;SDS011;53663;42.676;23.238;2022-09-09T10:20:42;20.15;;;6.50;;
66751;SDS011;53663;42.676;23.238;2022-09-09T10:29:05;19.50;;;8.98;;
66751;SDS011;53663;42.676;23.238;2022-09-09T10:37:06;18.67;;;6.43;;
66751;SDS011;53663;42.676;23.238;2022-09-09T10:39:47;15.95;;;6.43;;
66751;SDS011;53663;42.676;23.238;2022-09-09T10:42:25;18.80;;;6.63;;
66751;SDS011;53663;42.676;23.238;2022-09-09T10:45:41;20.38;;;6.68;;
66751;SDS011;53663;42.676;23.238;2022-09-09T10:48:11;16.63;;;5.88;;
66751;SDS011;53663;42.676;23.238;2022-09-09T10:51:09;17.77;;;6.10;;
66751;SDS011;53663;42.676;23.238;2022-09-09T10:56:19;17.80;;;5.90;;
66751;SDS011;53663;42.676;23.238;2022-09-09T11:01:24;13.77;;;5.85;;
66751;SDS011;53663;42.676;23.238;2022-09-09T11:04:02;18.85;;;6.07;;
66751;SDS011;53663;42.676;23.238;2022-09-09T11:06:37;21.80;;;6.70;;
66751;SDS011;53663;42.676;23.238;2022-09-09T11:09:08;21.45;;;6.22;;
66751;SDS011;53663;42.676;23.238;2022-09-09T11:11:44;12.00;;;6.10;;
66751;SDS011;53663;42.676;23.238;2022-09-09T11:14:30;13.95;;;6.15;;
66751;SDS011;53663;42.676;23.238;2022-09-09T11:17:02;14.18;;;5.85;;
66751;SDS011;53663;42.676;23.238;2022-09-09T11:19:35;17.88;;;6.57;;
66751;SDS011;53663;42.676;23.238;2022-09-09T11:22:07;8.35;;;5.45;;
66751;SDS011;53663;42.676;23.238;2022-09-09T11:24:41;9.77;;;5.45;;
66751;SDS011;53663;42.676;23.238;2022-09-09T11:27:17;11.77;;;5.70;;
66751;SDS011;53663;42.676;23.238;2022-09-09T11:38:16;12.90;;;5.45;;
66751;SDS011;53663;42.676;23.238;2022-09-09T11:40:53;14.05;;;5.53;;
66751;SDS011;53663;42.676;23.238;2022-09-09T11:43:24;18.60;;;5.93;;
66751;SDS011;53663;42.676;23.238;2022-09-09T11:45:57;15.48;;;5.50;;
66751;SDS011;53663;42.676;23.238;2022-09-09T11:48:35;18.88;;;6.32;;
66751;SDS011;53663;42.676;23.238;2022-09-09T11:51:07;13.85;;;6.13;;
66751;SDS011;53663;42.676;23.238;2022-09-09T11:53:35;20.35;;;6.55;;
66751;SDS011;53663;42.676;23.238;2022-09-09T11:56:13;10.45;;;6.00;;
66751;SDS011;53663;42.676;23.238;2022-09-09T11:59:06;12.05;;;6.05;;
66751;SDS011;53663;42.676;23.238;2022-09-09T12:01:46;19.77;;;5.90;;
66751;SDS011;53663;42.676;23.238;2022-09-09T12:12:30;15.20;;;5.30;;
66751;SDS011;53663;42.676;23.238;2022-09-09T12:17:37;13.27;;;5.60;;
66751;SDS011;53663;42.676;23.238;2022-09-09T12:34:13;15.98;;;5.00;;
66751;SDS011;53663;42.676;23.238;2022-09-09T12:36:42;12.98;;;4.90;;
66751;SDS011;53663;42.676;23.238;2022-09-09T12:39:21;10.25;;;5.13;;
66751;SDS011;53663;42.676;23.238;2022-09-09T12:41:53;11.70;;;4.82;;
66751;SDS011;53663;42.676;23.238;2022-09-09T12:44:25;14.40;;;5.00;;
66751;SDS011;53663;42.676;23.238;2022-09-09T12:46:53;11.40;;;4.90;;
66751;SDS011;53663;42.676;23.238;2022-09-09T12:49:28;16.83;;;5.18;;
66751;SDS011;53663;42.676;23.238;2022-09-09T12:52:13;13.13;;;4.80;;
66751;SDS011;53663;42.676;23.238;2022-09-09T12:55:02;9.75;;;4.65;;
66751;SDS011;53663;42.676;23.238;2022-09-09T12:57:33;11.13;;;4.75;;
66751;SDS011;53663;42.676;23.238;2022-09-09T13:00:12;11.02;;;4.85;;
66751;SDS011;53663;42.676;23.238;2022-09-09T13:05:27;10.32;;;4.47;;
66751;SDS011;53663;42.676;23.238;2022-09-09T13:08:02;11.85;;;4.50;;
66751;SDS011;53663;42.676;23.238;2022-09-09T13:10:31;12.38;;;4.43;;
66751;SDS011;53663;42.676;23.238;2022-09-09T13:13:00;9.95;;;5.13;;
66751;SDS011;53663;42.676;23.238;2022-09-09T13:15:28;12.73;;;4.55;;
66751;SDS011;53663;42.676;23.238;2022-09-09T13:17:58;12.57;;;5.20;;
66751;SDS011;53663;42.676;23.238;2022-09-09T13:20:26;13.52;;;5.45;;
66751;SDS011;53663;42.676;23.238;2022-09-09T13:22:53;10.90;;;5.45;;
66751;SDS011;53663;42.676;23.238;2022-09-09T13:25:22;12.18;;;4.43;;
66751;SDS011;53663;42.676;23.238;2022-09-09T13:28:04;11.48;;;5.38;;
66751;SDS011;53663;42.676;23.238;2022-09-09T13:30:44;11.98;;;4.50;;
66751;SDS011;53663;42.676;23.238;2022-09-09T13:33:36;7.70;;;4.53;;
66751;SDS011;53663;42.676;23.238;2022-09-09T13:36:03;11.43;;;4.45;;
66751;SDS011;53663;42.676;23.238;2022-09-09T13:38:32;13.30;;;4.95;;
66751;SDS011;53663;42.676;23.238;2022-09-09T13:41:04;14.02;;;6.25;;
66751;SDS011;53663;42.676;23.238;2022-09-09T13:43:36;12.38;;;4.82;;
66751;SDS011;53663;42.676;23.238;2022-09-09T13:48:54;8.15;;;4.47;;
66751;SDS011;53663;42.676;23.238;2022-09-09T13:51:28;14.68;;;5.20;;
66751;SDS011;53663;42.676;23.238;2022-09-09T13:53:59;10.85;;;4.45;;
66751;SDS011;53663;42.676;23.238;2022-09-09T13:56:25;21.85;;;5.10;;
66751;SDS011;53663;42.676;23.238;2022-09-09T13:58:51;14.10;;;4.70;;
66751;SDS011;53663;42.676;23.238;2022-09-09T14:01:17;12.57;;;4.68;;
66751;SDS011;53663;42.676;23.238;2022-09-09T14:03:42;12.23;;;4.72;;
66751;SDS011;53663;42.676;23.238;2022-09-09T14:06:09;11.13;;;4.80;;
66751;SDS011;53663;42.676;23.238;2022-09-09T14:08:36;13.45;;;5.05;;
66751;SDS011;53663;42.676;23.238;2022-09-09T14:11:05;9.98;;;4.28;;
66751;SDS011;53663;42.676;23.238;2022-09-09T14:13:31;18.35;;;4.88;;
66751;SDS011;53663;42.676;23.238;2022-09-09T14:15:57;10.30;;;4.65;;
66751;SDS011;53663;42.676;23.238;2022-09-09T14:18:23;12.43;;;4.45;;
66751;SDS011;53663;42.676;23.238;2022-09-09T14:20:50;20.92;;;5.43;;
66751;SDS011;53663;42.676;23.238;2022-09-09T14:23:16;12.15;;;5.18;;
66751;SDS011;53663;42.676;23.238;2022-09-09T14:25:42;19.77;;;5.75;;
66751;SDS011;53663;42.676;23.238;2022-09-09T14:28:12;12.48;;;5.90;;
66751;SDS011;53663;42.676;23.238;2022-09-09T14:30:39;14.63;;;6.20;;
66751;SDS011;53663;42.676;23.238;2022-09-09T14:33:06;13.88;;;5.60;;
66751;SDS011;53663;42.676;23.238;2022-09-09T14:35:37;16.00;;;6.22;;
66751;SDS011;53663;42.676;23.238;2022-09-09T14:38:03;14.13;;;6.13;;
66751;SDS011;53663;42.676;23.238;2022-09-09T14:40:30;15.75;;;6.15;;
66751;SDS011;53663;42.676;23.238;2022-09-09T14:42:56;18.48;;;6.07;;
66751;SDS011;53663;42.676;23.238;2022-09-09T14:45:22;18.17;;;6.00;;
66751;SDS011;53663;42.676;23.238;2022-09-09T14:47:50;15.68;;;6.20;;
66751;SDS011;53663;42.676;23.238;2022-09-09T14:50:17;21.33;;;6.40;;
66751;SDS011;53663;42.676;23.238;2022-09-09T14:52:43;13.13;;;5.63;;
66751;SDS011;53663;42.676;23.238;2022-09-09T14:55:09;20.20;;;5.13;;
66751;SDS011;53663;42.676;23.238;2022-09-09T14:57:35;10.35;;;4.55;;
66751;SDS011;53663;42.676;23.238;2022-09-09T15:00:01;20.33;;;6.25;;
66751;SDS011;53663;42.676;23.238;2022-09-09T15:02:30;14.80;;;5.68;;
66751;SDS011;53663;42.676;23.238;2022-09-09T15:04:56;16.73;;;6.53;;
66751;SDS011;53663;42.676;23.238;2022-09-09T15:07:23;11.88;;;6.03;;
66751;SDS011;53663;42.676;23.238;2022-09-09T15:09:51;10.48;;;4.72;;
66751;SDS011;53663;42.676;23.238;2022-09-09T15:12:18;8.55;;;4.53;;
66751;SDS011;53663;42.676;23.238;2022-09-09T15:14:44;12.20;;;4.70;;
66751;SDS011;53663;42.676;23.238;2022-09-09T15:17:10;12.20;;;4.90;;
66751;SDS011;53663;42.676;23.238;2022-09-09T15:19:36;19.42;;;4.70;;
66751;SDS011;53663;42.676;23.238;2022-09-09T15:22:03;13.88;;;4.30;;
66751;SDS011;53663;42.676;23.238;2022-09-09T15:24:33;13.88;;;4.72;;
66751;SDS011;53663;42.676;23.238;2022-09-09T15:27:00;12.65;;;4.68;;
66751;SDS011;53663;42.676;23.238;2022-09-09T15:29:26;12.55;;;4.47;;
66751;SDS011;53663;42.676;23.238;2022-09-09T15:31:55;9.90;;;4.50;;
66751;SDS011;53663;42.676;23.238;2022-09-09T15:34:21;12.95;;;4.57;;
66751;SDS011;53663;42.676;23.238;2022-09-09T15:36:47;15.65;;;4.32;;
66751;SDS011;53663;42.676;23.238;2022-09-09T15:39:17;14.00;;;4.72;;
66751;SDS011;53663;42.676;23.238;2022-09-09T15:41:43;14.57;;;4.72;;
66751;SDS011;53663;42.676;23.238;2022-09-09T15:44:11;8.55;;;4.57;;
66751;SDS011;53663;42.676;23.238;2022-09-09T15:46:38;10.77;;;4.20;;
66751;SDS011;53663;42.676;23.238;2022-09-09T15:51:39;10.10;;;4.50;;
66751;SDS011;53663;42.676;23.238;2022-09-09T15:54:07;11.27;;;4.82;;
66751;SDS011;53663;42.676;23.238;2022-09-09T15:56:35;13.70;;;4.82;;
66751;SDS011;53663;42.676;23.238;2022-09-09T15:59:01;12.98;;;4.82;;
66751;SDS011;53663;42.676;23.238;2022-09-09T16:01:30;14.82;;;4.38;;
66751;SDS011;53663;42.676;23.238;2022-09-09T16:03:57;13.57;;;5.30;;
66751;SDS011;53663;42.676;23.238;2022-09-09T16:06:25;15.23;;;4.93;;
66751;SDS011;53663;42.676;23.238;2022-09-09T16:08:53;14.88;;;5.38;;
66751;SDS011;53663;42.676;23.238;2022-09-09T16:11:21;17.00;;;5.55;;
66751;SDS011;53663;42.676;23.238;2022-09-09T16:13:49;15.30;;;5.63;;
66751;SDS011;53663;42.676;23.238;2022-09-09T16:16:17;18.38;;;5.68;;
66751;SDS011;53663;42.676;23.238;2022-09-09T16:18:48;11.43;;;5.63;;
66751;SDS011;53663;42.676;23.238;2022-09-09T16:21:21;17.42;;;5.88;;
66751;SDS011;53663;42.676;23.238;2022-09-09T16:23:54;13.77;;;5.43;;
66751;SDS011;53663;42.676;23.238;2022-09-09T16:26:20;13.57;;;5.13;;
66751;SDS011;53663;42.676;23.238;2022-09-09T16:28:47;17.20;;;5.38;;
66751;SDS011;53663;42.676;23.238;2022-09-09T16:31:15;11.85;;;5.15;;
66751;SDS011;53663;42.676;23.238;2022-09-09T16:33:43;15.07;;;5.07;;
66751;SDS011;53663;42.676;23.238;2022-09-09T16:36:10;18.63;;;5.40;;
66751;SDS011;53663;42.676;23.238;2022-09-09T16:38:38;12.82;;;5.13;;
66751;SDS011;53663;42.676;23.238;2022-09-09T16:41:04;16.50;;;4.60;;
66751;SDS011;53663;42.676;23.238;2022-09-09T16:43:34;15.77;;;4.93;;
66751;SDS011;53663;42.676;23.238;2022-09-09T16:46:01;13.48;;;5.15;;
66751;SDS011;53663;42.676;23.238;2022-09-09T16:48:42;15.27;;;4.97;;
66751;SDS011;53663;42.676;23.238;2022-09-09T16:51:12;18.73;;;7.35;;
66751;SDS011;53663;42.676;23.238;2022-09-09T16:53:51;15.93;;;6.45;;